Time;durP1;ratioP1;P1;durP2;ratioP2;P2;SDS_P1;SDS_P2;PMS_P1;PMS_P2;Temp;Humidity;BMP_temperature;BMP_pressure;BME280_temperature;BME280_humidity;BME280_pressure;Samples;Min_cycle;Max_cycle;Signal;HPM_P1;HPM_P2
2023/02/24 00:00:51;;;;;;;38.92;20.40;;;8.20;99.90;;;;;;4973410;28;20387;-53
2023/02/24 00:03:38;;;;;;;41.03;20.85;;;8.30;99.90;;;;;;4975020;28;20019;-56
2023/02/24 00:06:39;;;;;;;40.08;20.15;;;8.30;99.90;;;;;;4973449;28;20109;-53
2023/02/24 00:09:27;;;;;;;39.08;21.25;;;8.30;99.90;;;;;;4973615;28;20035;-55
2023/02/24 00:12:15;;;;;;;37.85;19.23;;;8.30;99.90;;;;;;4973465;28;20027;-57
2023/02/24 00:15:10;;;;;;;44.58;22.17;;;8.30;99.90;;;;;;4973596;28;20027;-52
2023/02/24 00:17:57;;;;;;;44.22;21.50;;;8.20;99.90;;;;;;4960650;28;20034;-57
2023/02/24 00:20:43;;;;;;;47.10;23.05;;;8.00;99.90;;;;;;4971637;28;20031;-53
2023/02/24 00:23:29;;;;;;;45.40;22.67;;;7.90;99.90;;;;;;4974360;28;20035;-52
2023/02/24 00:26:16;;;;;;;45.45;21.67;;;7.80;99.90;;;;;;4972489;28;20440;-51
2023/02/24 00:29:05;;;;;;;47.15;22.60;;;7.80;99.90;;;;;;4970075;28;20161;-58
2023/02/24 00:31:59;;;;;;;47.20;21.92;;;7.80;99.90;;;;;;4973788;28;20113;-55
2023/02/24 00:34:47;;;;;;;51.70;22.83;;;7.80;99.90;;;;;;4975157;28;20027;-55
2023/02/24 00:37:33;;;;;;;43.30;22.85;;;7.90;99.90;;;;;;4973707;28;20037;-55
2023/02/24 00:40:22;;;;;;;47.45;23.42;;;8.00;99.90;;;;;;4974913;28;20019;-51
2023/02/24 00:43:08;;;;;;;55.30;21.65;;;8.00;99.90;;;;;;4972947;28;20039;-56
2023/02/24 00:45:54;;;;;;;49.60;23.27;;;8.00;99.90;;;;;;4973191;28;20027;-52
2023/02/24 00:48:40;;;;;;;49.08;22.33;;;8.00;99.90;;;;;;4973263;28;20085;-51
2023/02/24 00:51:26;;;;;;;51.47;21.73;;;7.90;99.90;;;;;;4970657;28;20027;-52
2023/02/24 00:54:13;;;;;;;59.90;26.17;;;7.90;99.90;;;;;;4971851;28;20030;-53
2023/02/24 00:57:01;;;;;;;50.75;22.77;;;7.90;99.90;;;;;;4972476;28;20027;-51
2023/02/24 00:59:50;;;;;;;55.58;25.58;;;7.90;99.90;;;;;;4972827;28;20042;-51
2023/02/24 01:02:37;;;;;;;51.22;24.20;;;8.00;99.90;;;;;;4957755;28;20477;-53
2023/02/24 01:05:23;;;;;;;54.13;27.30;;;8.00;99.90;;;;;;4972707;28;20475;-50
2023/02/24 01:08:09;;;;;;;56.75;27.60;;;8.00;99.90;;;;;;4971240;28;20089;-49
2023/02/24 01:14:11;;;;;;;57.20;27.45;;;7.70;99.90;;;;;;4954339;29;20083;-51
2023/02/24 01:16:57;;;;;;;45.63;21.92;;;7.80;99.90;;;;;;4953071;29;20058;-56
2023/02/24 01:19:44;;;;;;;25.10;12.18;;;7.60;99.90;;;;;;4954382;28;20118;-52
2023/02/24 01:22:30;;;;;;;18.30;9.10;;;7.10;99.90;;;;;;4972340;28;20023;-50
2023/02/24 01:25:19;;;;;;;11.68;6.78;;;6.70;99.90;;;;;;4972613;28;20022;-52
2023/02/24 01:28:05;;;;;;;16.27;6.78;;;6.30;99.90;;;;;;4972644;28;20120;-54
2023/02/24 01:30:51;;;;;;;16.38;7.68;;;6.30;99.90;;;;;;4972369;28;20035;-52
2023/02/24 01:33:38;;;;;;;21.35;7.35;;;6.20;99.90;;;;;;4972298;28;20460;-55
2023/02/24 01:36:25;;;;;;;19.70;8.10;;;6.20;99.90;;;;;;4972081;28;20630;-54
2023/02/24 01:39:12;;;;;;;16.30;8.05;;;6.10;99.90;;;;;;4971739;28;20037;-56
2023/02/24 01:42:01;;;;;;;17.13;7.82;;;6.10;99.90;;;;;;4972818;28;20035;-57
2023/02/24 01:44:46;;;;;;;20.35;8.13;;;6.10;99.90;;;;;;4972242;28;20106;-56
2023/02/24 01:47:32;;;;;;;21.50;8.40;;;6.00;99.90;;;;;;4971701;28;20042;-57
2023/02/24 01:50:22;;;;;;;16.63;7.95;;;6.00;99.90;;;;;;4972220;28;20031;-57
2023/02/24 01:53:08;;;;;;;19.60;7.80;;;6.00;99.90;;;;;;4972888;28;20038;-56
2023/02/24 01:55:54;;;;;;;21.08;8.18;;;5.90;99.90;;;;;;4958430;28;20042;-59
2023/02/24 01:58:40;;;;;;;23.67;8.18;;;6.00;99.90;;;;;;4969092;28;20035;-59
2023/02/24 02:01:27;;;;;;;22.60;8.65;;;6.00;99.90;;;;;;4954745;28;20039;-59
2023/02/24 02:04:21;;;;;;;19.20;7.95;;;5.70;99.90;;;;;;4965092;28;20515;-59
2023/02/24 02:07:11;;;;;;;20.60;7.90;;;5.80;99.90;;;;;;4974749;28;20022;-52
2023/02/24 02:10:02;;;;;;;23.48;8.82;;;5.80;99.90;;;;;;4963034;28;20031;-57
2023/02/24 02:12:50;;;;;;;25.27;9.50;;;5.90;99.90;;;;;;4966329;28;20117;-58
2023/02/24 02:15:46;;;;;;;30.08;9.82;;;5.90;99.90;;;;;;4964022;28;20670;-58
2023/02/24 02:18:55;;;;;;;33.22;8.98;;;5.80;99.90;;;;;;4968942;28;20030;-57
2023/02/24 02:21:50;;;;;;;20.55;7.88;;;5.70;99.90;;;;;;4975745;28;20051;-58
2023/02/24 02:24:51;;;;;;;27.63;9.02;;;5.80;99.90;;;;;;4975538;28;20029;-53
2023/02/24 02:28:19;;;;;;;21.70;7.68;;;5.80;99.90;;;;;;4975943;28;20042;-58
2023/02/24 02:31:05;;;;;;;14.80;7.15;;;5.70;99.90;;;;;;4976343;28;20027;-55
2023/02/24 02:34:14;;;;;;;24.30;8.18;;;5.80;99.90;;;;;;4998951;28;20043;-53
2023/02/24 02:37:10;;;;;;;31.70;8.38;;;5.80;99.90;;;;;;4990073;28;20035;-55
2023/02/24 02:40:36;;;;;;;28.02;7.10;;;5.80;99.90;;;;;;4984331;28;20109;-58
2023/02/24 02:43:37;;;;;;;28.37;7.27;;;5.80;99.90;;;;;;4947842;28;20039;-52
2023/02/24 02:46:42;;;;;;;24.65;7.47;;;5.80;99.90;;;;;;4975628;28;20030;-54
2023/02/24 02:49:37;;;;;;;27.60;7.72;;;5.70;99.90;;;;;;4976054;28;20031;-57
2023/02/24 02:52:37;;;;;;;31.52;8.02;;;5.80;99.90;;;;;;4962845;28;20081;-55
2023/02/24 02:55:29;;;;;;;23.25;7.13;;;5.80;99.90;;;;;;4974855;28;20122;-56
2023/02/24 02:58:22;;;;;;;29.52;7.80;;;5.70;99.90;;;;;;4955623;29;20098;-54
2023/02/24 03:01:09;;;;;;;33.17;7.30;;;5.80;99.90;;;;;;4973090;28;20031;-55
2023/02/24 03:04:00;;;;;;;28.48;7.43;;;5.70;99.90;;;;;;4975616;28;20111;-56
2023/02/24 03:06:56;;;;;;;21.60;6.05;;;5.70;99.90;;;;;;4975305;28;20039;-56
2023/02/24 03:09:45;;;;;;;23.85;7.65;;;5.70;99.90;;;;;;4975390;28;20082;-56
2023/02/24 03:12:36;;;;;;;32.35;7.13;;;5.70;99.90;;;;;;4974550;28;20030;-53
2023/02/24 03:15:25;;;;;;;28.67;6.13;;;5.80;99.90;;;;;;4974779;28;20094;-54
2023/02/24 03:18:27;;;;;;;23.60;5.72;;;5.80;99.90;;;;;;4974682;28;20118;-55
2023/02/24 03:21:23;;;;;;;31.55;7.50;;;5.70;99.90;;;;;;4957781;28;20027;-56
2023/02/24 03:24:10;;;;;;;22.63;7.05;;;5.70;99.90;;;;;;4956058;29;20031;-55
2023/02/24 03:27:11;;;;;;;23.65;5.85;;;5.60;99.90;;;;;;4959411;28;20034;-54
2023/02/24 03:30:14;;;;;;;31.70;6.35;;;5.50;99.90;;;;;;4974540;28;20034;-51
2023/02/24 03:33:28;;;;;;;23.27;6.13;;;5.50;99.90;;;;;;4975309;28;20406;-53
2023/02/24 03:36:14;;;;;;;21.85;5.18;;;5.60;99.90;;;;;;4974517;28;20031;-55
2023/02/24 03:39:01;;;;;;;24.50;5.75;;;5.50;99.90;;;;;;4974285;28;20034;-53
2023/02/24 03:42:08;;;;;;;18.35;5.32;;;5.50;99.90;;;;;;4955535;29;20035;-54
2023/02/24 03:44:57;;;;;;;27.42;5.80;;;5.40;99.90;;;;;;4963162;28;20109;-53
2023/02/24 03:47:46;;;;;;;20.80;5.00;;;5.30;99.90;;;;;;4974404;28;20035;-53
2023/02/24 03:50:32;;;;;;;24.40;5.63;;;5.40;99.90;;;;;;4974019;28;20039;-52
2023/02/24 03:53:34;;;;;;;22.60;6.05;;;5.60;99.90;;;;;;4974229;28;20036;-52
2023/02/24 03:56:44;;;;;;;22.27;5.10;;;5.50;99.90;;;;;;4973986;28;20495;-55
2023/02/24 04:00:20;;;;;;;24.48;6.07;;;5.50;99.90;;;;;;4965998;28;20026;-53
2023/02/24 04:03:25;;;;;;;18.15;4.45;;;5.50;99.90;;;;;;4973549;28;20396;-53
2023/02/24 04:06:48;;;;;;;23.77;5.57;;;5.50;99.90;;;;;;4973346;28;20041;-56
2023/02/24 04:09:34;;;;;;;15.75;4.35;;;5.50;99.90;;;;;;4955232;29;20587;-53
2023/02/24 04:12:29;;;;;;;20.00;5.28;;;5.40;99.90;;;;;;4971508;28;20042;-55
2023/02/24 04:15:42;;;;;;;19.15;5.57;;;5.50;99.90;;;;;;4973581;28;20050;-54
2023/02/24 04:18:31;;;;;;;21.92;5.30;;;5.40;99.90;;;;;;4973331;28;20396;-51
2023/02/24 04:21:18;;;;;;;26.55;5.57;;;5.30;99.90;;;;;;4973549;28;20459;-49
2023/02/24 04:24:10;;;;;;;29.48;6.30;;;5.20;99.90;;;;;;4972745;28;20061;-51
2023/02/24 04:26:59;;;;;;;20.13;3.97;;;5.30;99.90;;;;;;4956349;28;20131;-50
2023/02/24 04:29:52;;;;;;;23.60;6.55;;;5.30;99.90;;;;;;4961457;28;20411;-51
2023/02/24 04:32:42;;;;;;;19.27;4.65;;;5.40;99.90;;;;;;4973463;28;20494;-51
2023/02/24 04:35:28;;;;;;;20.45;5.40;;;5.40;99.90;;;;;;4961941;28;20434;-53
2023/02/24 04:38:14;;;;;;;18.17;4.63;;;5.40;99.90;;;;;;4953668;29;20027;-50
2023/02/24 04:41:00;;;;;;;18.02;5.03;;;5.40;99.90;;;;;;4969586;28;20027;-55
2023/02/24 04:43:49;;;;;;;15.77;4.13;;;5.50;99.90;;;;;;4965262;28;20027;-49
2023/02/24 04:46:35;;;;;;;17.45;4.70;;;5.50;99.90;;;;;;4954910;28;20046;-51
2023/02/24 04:49:21;;;;;;;21.75;5.82;;;5.60;99.90;;;;;;4955403;28;20041;-49
2023/02/24 04:52:08;;;;;;;23.13;6.75;;;5.50;99.90;;;;;;4974715;28;20514;-49
2023/02/24 04:54:54;;;;;;;19.67;6.10;;;5.40;99.90;;;;;;4965505;28;20035;-51
2023/02/24 04:57:40;;;;;;;23.65;5.53;;;5.50;99.90;;;;;;4964867;28;20045;-50
2023/02/24 05:00:32;;;;;;;22.83;5.68;;;5.40;99.90;;;;;;4977137;28;20027;-51
2023/02/24 05:03:20;;;;;;;20.13;5.40;;;5.40;99.90;;;;;;4961643;28;20615;-53
2023/02/24 05:06:07;;;;;;;22.63;6.53;;;5.40;99.90;;;;;;4957359;29;20031;-52
2023/02/24 05:08:53;;;;;;;25.05;6.30;;;5.30;99.90;;;;;;4959672;28;20121;-57
2023/02/24 05:11:44;;;;;;;20.38;5.93;;;5.30;99.90;;;;;;4965594;28;20097;-57
2023/02/24 05:14:30;;;;;;;20.10;6.95;;;5.20;99.90;;;;;;4978220;28;20082;-54
2023/02/24 05:17:17;;;;;;;21.15;7.30;;;5.20;99.90;;;;;;4978629;28;20034;-56
2023/02/24 05:23:10;;;;;;;16.95;5.65;;;5.10;99.90;;;;;;4973091;28;20160;-50
2023/02/24 05:25:56;;;;;;;24.38;6.30;;;5.20;99.90;;;;;;4973465;28;20037;-56
2023/02/24 05:28:47;;;;;;;20.15;6.72;;;5.30;99.90;;;;;;4954496;28;20035;-51
2023/02/24 05:31:35;;;;;;;17.15;6.20;;;5.10;99.90;;;;;;4959127;28;20039;-50
2023/02/24 05:34:23;;;;;;;22.58;6.97;;;5.00;99.90;;;;;;4973272;28;20097;-51
2023/02/24 05:37:09;;;;;;;18.73;5.68;;;5.20;99.90;;;;;;4971722;28;20384;-50
2023/02/24 05:39:56;;;;;;;21.20;7.05;;;5.20;99.90;;;;;;4972321;28;20031;-52
2023/02/24 05:42:44;;;;;;;27.23;6.32;;;5.30;99.90;;;;;;4953339;29;20023;-53
2023/02/24 05:45:30;;;;;;;24.83;6.25;;;5.20;99.90;;;;;;4960547;28;20053;-50
2023/02/24 05:48:16;;;;;;;23.88;6.95;;;5.20;99.90;;;;;;4972563;28;20039;-52
2023/02/24 05:51:06;;;;;;;23.45;6.63;;;5.10;99.90;;;;;;4972387;28;20406;-54
2023/02/24 05:53:54;;;;;;;22.20;5.88;;;5.10;99.90;;;;;;4962169;28;20023;-53
2023/02/24 05:56:43;;;;;;;19.30;5.82;;;5.20;99.90;;;;;;4972351;28;20035;-55
2023/02/24 05:59:33;;;;;;;22.23;7.88;;;5.10;99.90;;;;;;4972191;28;20081;-53
2023/02/24 06:02:26;;;;;;;25.35;6.05;;;5.20;99.90;;;;;;4972130;28;20468;-51
2023/02/24 06:05:24;;;;;;;18.05;6.47;;;5.10;99.90;;;;;;4972681;28;20034;-49
2023/02/24 06:08:10;;;;;;;22.33;8.40;;;5.00;99.90;;;;;;4972410;28;20062;-51
2023/02/24 06:10:56;;;;;;;15.48;6.07;;;5.20;99.90;;;;;;4971909;28;20030;-50
2023/02/24 06:13:48;;;;;;;19.40;5.50;;;5.10;99.90;;;;;;4954760;29;20032;-54
2023/02/24 06:16:36;;;;;;;22.95;6.25;;;5.20;99.90;;;;;;4958244;28;20038;-53
2023/02/24 06:19:24;;;;;;;24.40;7.00;;;5.10;99.90;;;;;;4972238;28;20085;-54
2023/02/24 06:22:14;;;;;;;23.98;6.72;;;5.10;99.90;;;;;;4974285;28;20110;-52
2023/02/24 06:25:00;;;;;;;21.90;6.70;;;5.20;99.90;;;;;;4974463;28;20024;-56
2023/02/24 06:27:52;;;;;;;19.65;6.70;;;5.30;99.90;;;;;;4974193;28;20125;-53
2023/02/24 06:30:38;;;;;;;19.67;6.18;;;5.20;99.90;;;;;;4972442;28;20448;-53
2023/02/24 06:33:25;;;;;;;19.17;6.85;;;5.40;99.90;;;;;;4972330;28;20507;-51
2023/02/24 06:36:15;;;;;;;19.98;6.70;;;5.40;99.90;;;;;;4971779;28;20042;-56
2023/02/24 06:39:00;;;;;;;17.13;6.93;;;5.20;99.90;;;;;;4972129;28;20023;-55
2023/02/24 06:41:48;;;;;;;24.67;7.22;;;5.20;99.90;;;;;;4973299;28;20038;-55
2023/02/24 06:44:37;;;;;;;19.27;7.13;;;5.30;99.90;;;;;;4972068;28;20027;-58
2023/02/24 06:47:23;;;;;;;27.42;6.47;;;5.30;99.90;;;;;;4983618;28;20027;-58
2023/02/24 06:50:11;;;;;;;18.70;6.45;;;5.20;99.90;;;;;;4958649;28;20039;-59
2023/02/24 06:52:59;;;;;;;30.17;7.28;;;5.20;99.90;;;;;;4967806;28;20028;-57
2023/02/24 06:55:47;;;;;;;18.38;6.53;;;5.10;99.90;;;;;;4961626;28;20034;-58
2023/02/24 06:58:33;;;;;;;24.40;6.72;;;5.30;99.90;;;;;;4973500;28;20090;-57
2023/02/24 07:01:25;;;;;;;29.55;8.68;;;5.40;99.90;;;;;;4965164;28;20559;-55
2023/02/24 07:07:01;;;;;;;21.75;6.78;;;5.40;99.90;;;;;;4957407;28;20114;-57
2023/02/24 07:09:47;;;;;;;16.88;6.85;;;5.40;99.90;;;;;;4955437;29;20105;-56
2023/02/24 07:12:33;;;;;;;25.50;7.07;;;5.40;99.90;;;;;;4974430;28;20073;-56
2023/02/24 07:15:20;;;;;;;21.33;6.07;;;5.60;99.90;;;;;;4976669;28;20029;-54
2023/02/24 07:18:13;;;;;;;26.13;7.40;;;5.60;99.90;;;;;;4956197;29;20051;-52
2023/02/24 07:21:03;;;;;;;22.27;7.18;;;5.50;99.90;;;;;;4968360;28;20039;-55
2023/02/24 07:23:55;;;;;;;21.77;7.72;;;5.30;99.90;;;;;;4976479;28;20102;-57
2023/02/24 07:26:42;;;;;;;23.00;7.75;;;5.20;99.90;;;;;;4975167;28;20093;-57
2023/02/24 07:29:31;;;;;;;26.80;7.80;;;5.40;99.90;;;;;;4975001;28;20046;-55
2023/02/24 07:32:17;;;;;;;23.95;6.28;;;5.50;99.90;;;;;;4973454;28;20035;-57
2023/02/24 07:35:03;;;;;;;15.10;6.25;;;5.50;99.90;;;;;;4974401;28;20027;-59
2023/02/24 07:37:49;;;;;;;27.92;8.10;;;5.50;99.90;;;;;;4974120;28;20118;-55
2023/02/24 07:40:35;;;;;;;31.63;8.52;;;5.60;99.90;;;;;;4974326;28;20031;-57
2023/02/24 07:43:21;;;;;;;32.95;7.45;;;5.60;99.90;;;;;;4974132;28;20035;-59
2023/02/24 07:46:13;;;;;;;20.58;8.00;;;5.70;99.90;;;;;;4973833;28;20030;-59
2023/02/24 07:48:59;;;;;;;22.50;6.65;;;5.60;99.90;;;;;;4974342;28;20499;-53
2023/02/24 07:51:51;;;;;;;27.73;7.18;;;5.60;99.90;;;;;;4974883;28;20036;-57
2023/02/24 07:54:38;;;;;;;18.95;5.82;;;5.60;99.90;;;;;;4974432;28;20030;-57
2023/02/24 07:57:24;;;;;;;25.13;7.40;;;5.60;99.90;;;;;;4972583;28;20411;-55
2023/02/24 08:00:19;;;;;;;20.10;7.57;;;5.70;99.90;;;;;;4972132;28;20515;-57
2023/02/24 08:03:05;;;;;;;18.90;6.35;;;5.70;99.90;;;;;;4958832;28;20596;-57
2023/02/24 08:05:54;;;;;;;22.15;7.38;;;5.70;99.90;;;;;;4954989;28;20043;-57
2023/02/24 08:09:15;;;;;;;17.33;6.70;;;5.70;99.90;;;;;;4953978;29;20051;-55
2023/02/24 08:12:02;;;;;;;16.95;6.25;;;5.70;99.90;;;;;;4974232;28;20038;-56
2023/02/24 08:14:51;;;;;;;17.75;5.78;;;5.90;99.90;;;;;;4972733;28;20059;-56
2023/02/24 08:17:38;;;;;;;17.17;4.95;;;5.70;99.90;;;;;;4972218;28;20091;-55
2023/02/24 08:20:28;;;;;;;12.18;4.88;;;5.70;99.90;;;;;;4972925;28;20031;-55
2023/02/24 08:23:14;;;;;;;13.32;5.55;;;5.70;99.90;;;;;;4973005;28;20038;-59
2023/02/24 08:26:02;;;;;;;12.02;5.03;;;5.90;99.90;;;;;;4973598;28;20038;-58
2023/02/24 08:28:49;;;;;;;11.23;5.03;;;5.90;99.90;;;;;;4970629;28;20504;-55
2023/02/24 08:31:35;;;;;;;13.30;5.25;;;5.90;99.90;;;;;;4972767;28;20046;-56
2023/02/24 08:34:21;;;;;;;16.25;5.75;;;5.70;99.90;;;;;;4973702;28;20031;-59
2023/02/24 08:37:07;;;;;;;17.42;5.63;;;5.80;99.90;;;;;;4973215;28;20043;-58
2023/02/24 08:39:55;;;;;;;11.35;5.03;;;5.80;99.90;;;;;;4971671;28;20030;-55
2023/02/24 08:42:41;;;;;;;15.98;5.97;;;5.80;99.90;;;;;;4973064;28;20499;-58
2023/02/24 08:45:32;;;;;;;17.30;6.00;;;5.80;99.90;;;;;;4972705;28;20113;-59
2023/02/24 08:48:41;;;;;;;11.93;6.00;;;5.90;99.90;;;;;;4972343;28;20031;-58
2023/02/24 08:51:34;;;;;;;23.10;7.50;;;5.90;99.90;;;;;;4971571;28;20035;-58
2023/02/24 08:54:30;;;;;;;13.90;5.93;;;5.80;99.90;;;;;;4963128;28;20027;-57
2023/02/24 08:57:17;;;;;;;14.85;5.80;;;5.80;99.90;;;;;;4972040;28;20059;-58
2023/02/24 09:00:05;;;;;;;17.20;5.68;;;5.90;99.90;;;;;;4972437;28;20407;-59
2023/02/24 09:02:55;;;;;;;14.65;5.97;;;6.00;99.90;;;;;;4972983;28;20113;-60
2023/02/24 09:05:40;;;;;;;15.38;5.93;;;5.90;99.90;;;;;;4972691;28;20023;-58
2023/02/24 09:08:31;;;;;;;19.75;6.82;;;6.00;99.90;;;;;;4971384;28;20034;-58
2023/02/24 09:11:17;;;;;;;16.15;6.15;;;5.80;99.90;;;;;;4972707;28;20023;-57
2023/02/24 09:14:03;;;;;;;17.02;6.07;;;5.70;99.90;;;;;;4972107;28;20031;-59
2023/02/24 09:17:02;;;;;;;16.67;6.45;;;5.70;99.90;;;;;;4971733;28;20583;-58
2023/02/24 09:22:55;;;;;;;17.85;6.10;;;5.90;99.90;;;;;;4974248;28;20038;-57
2023/02/24 09:25:48;;;;;;;12.68;6.28;;;5.90;99.90;;;;;;4972527;28;20031;-59
2023/02/24 09:28:47;;;;;;;14.95;5.88;;;6.00;99.90;;;;;;4972751;28;20114;-55
2023/02/24 09:31:54;;;;;;;14.05;6.18;;;6.00;99.90;;;;;;4972349;28;20407;-57
2023/02/24 09:34:42;;;;;;;14.68;5.63;;;5.80;99.90;;;;;;4971935;28;20388;-57
2023/02/24 09:37:30;;;;;;;13.90;5.32;;;6.00;99.90;;;;;;4972020;28;20157;-55
2023/02/24 09:43:16;;;;;;;12.15;5.43;;;6.20;99.90;;;;;;4972184;28;20054;-55
2023/02/24 09:46:15;;;;;;;12.57;5.78;;;6.20;99.90;;;;;;4972834;28;20039;-59
2023/02/24 09:49:16;;;;;;;8.60;4.60;;;6.10;99.90;;;;;;4972331;28;20031;-52
2023/02/24 09:52:07;;;;;;;10.35;4.90;;;6.10;99.90;;;;;;4970230;28;21512;-50
2023/02/24 10:01:29;;;;;;;9.38;5.20;;;6.30;99.90;;;;;;4972695;28;20105;-50
2023/02/24 10:04:29;;;;;;;13.75;5.07;;;6.60;99.90;;;;;;4952838;29;20024;-49
2023/02/24 10:07:19;;;;;;;9.02;5.20;;;6.50;99.90;;;;;;4952159;29;20519;-57
2023/02/24 10:10:26;;;;;;;12.50;5.18;;;6.60;99.90;;;;;;4954572;28;20029;-54
2023/02/24 10:13:29;;;;;;;9.52;5.22;;;6.50;99.90;;;;;;4953143;28;20059;-50
2023/02/24 10:16:22;;;;;;;9.90;4.97;;;6.50;99.90;;;;;;4971244;28;20403;-52
2023/02/24 10:19:33;;;;;;;12.93;5.50;;;6.40;99.90;;;;;;4970907;28;20471;-55
2023/02/24 10:22:27;;;;;;;14.52;5.10;;;6.30;99.90;;;;;;4972542;28;20027;-50
2023/02/24 10:25:24;;;;;;;13.43;4.93;;;6.40;99.90;;;;;;4975705;28;20030;-52
2023/02/24 10:28:34;;;;;;;9.55;4.88;;;6.50;99.90;;;;;;4976159;28;20110;-50
2023/02/24 10:34:55;;;;;;;13.20;5.63;;;6.50;99.90;;;;;;4926199;28;20040;-56
2023/02/24 10:37:41;;;;;;;15.38;6.07;;;6.60;99.90;;;;;;4958700;28;20039;-59
2023/02/24 10:40:43;;;;;;;11.18;5.55;;;6.30;99.90;;;;;;4974971;28;20464;-58
2023/02/24 10:43:30;;;;;;;10.35;5.15;;;6.40;99.90;;;;;;4975184;28;20034;-57
2023/02/24 10:46:25;;;;;;;13.65;5.10;;;6.40;99.90;;;;;;4964751;28;20039;-59
2023/02/24 10:49:15;;;;;;;;;;;6.30;99.90;;;;;;4970997;28;20038;-55
2023/02/24 10:52:07;;;;;;;12.07;5.30;;;6.30;99.90;;;;;;4975746;28;19910;-58
2023/02/24 10:55:07;;;;;;;15.13;5.47;;;6.30;99.90;;;;;;4974628;28;20506;-58
2023/02/24 10:58:05;;;;;;;11.13;4.80;;;6.30;99.90;;;;;;4974092;28;20401;-59
2023/02/24 11:01:11;;;;;;;11.82;4.90;;;6.40;99.90;;;;;;4975371;28;20019;-54
2023/02/24 11:04:21;;;;;;;;;;;6.50;99.90;;;;;;4970027;28;20027;-59
2023/02/24 11:07:23;;;;;;;11.98;4.93;;;6.50;99.90;;;;;;4973934;28;19917;-59
2023/02/24 11:10:24;;;;;;;8.77;5.00;;;6.40;99.90;;;;;;4968622;28;20534;-56
2023/02/24 11:19:28;;;;;;;12.50;5.78;;;6.30;99.90;;;;;;4966244;28;20031;-55
2023/02/24 11:22:19;;;;;;;14.43;4.80;;;6.50;99.90;;;;;;4973434;28;20027;-55
2023/02/24 11:25:23;;;;;;;8.63;5.40;;;6.40;99.90;;;;;;4974132;28;20034;-56
2023/02/24 11:28:27;;;;;;;14.68;5.13;;;6.30;99.90;;;;;;4974052;28;20516;-57
2023/02/24 11:31:38;;;;;;;11.80;5.68;;;6.30;99.90;;;;;;4973399;28;20122;-59
2023/02/24 11:34:37;;;;;;;12.93;6.05;;;6.40;99.90;;;;;;4973000;28;20062;-57
2023/02/24 11:37:39;;;;;;;12.32;6.18;;;6.40;99.90;;;;;;4972325;28;20049;-55
2023/02/24 11:40:29;;;;;;;14.10;5.88;;;6.70;99.90;;;;;;4973643;28;20526;-58
2023/02/24 11:43:21;;;;;;;12.18;5.15;;;6.90;99.90;;;;;;4974200;28;20035;-56
2023/02/24 11:46:20;;;;;;;14.88;5.80;;;6.90;99.90;;;;;;4972013;28;20414;-57
2023/02/24 11:49:34;;;;;;;13.25;5.75;;;6.80;99.90;;;;;;4972474;28;20087;-60
2023/02/24 11:52:34;;;;;;;11.27;5.47;;;6.50;99.90;;;;;;4971415;28;20495;-57
2023/02/24 11:55:57;;;;;;;12.52;4.97;;;6.40;99.90;;;;;;4969634;28;20039;-57
2023/02/24 11:59:05;;;;;;;10.02;4.82;;;6.40;99.90;;;;;;4966486;28;20042;-58
2023/02/24 12:02:09;;;;;;;12.40;4.60;;;6.40;99.90;;;;;;4961027;28;20078;-58
2023/02/24 12:05:13;;;;;;;16.00;5.35;;;6.30;99.90;;;;;;4969907;28;20114;-57
2023/02/24 12:08:32;;;;;;;11.38;4.40;;;6.40;99.90;;;;;;4973447;28;20034;-59
2023/02/24 12:11:24;;;;;;;9.88;4.90;;;6.30;99.90;;;;;;4973332;28;20495;-58
2023/02/24 12:14:23;;;;;;;12.90;4.55;;;6.40;99.90;;;;;;4973679;28;20058;-59
2023/02/24 12:17:20;;;;;;;11.23;4.75;;;6.30;99.90;;;;;;4972394;28;20567;-52
2023/02/24 12:20:26;;;;;;;8.25;4.25;;;6.20;99.90;;;;;;4973303;28;20031;-56
2023/02/24 12:23:14;;;;;;;9.30;4.13;;;6.20;99.90;;;;;;4975663;28;20134;-55
2023/02/24 12:26:23;;;;;;;8.32;4.40;;;6.00;99.90;;;;;;4974434;28;20153;-58
2023/02/24 12:29:41;;;;;;;8.25;4.60;;;6.00;99.90;;;;;;4974139;28;20054;-59
2023/02/24 12:32:53;;;;;;;6.25;4.00;;;5.70;99.90;;;;;;4974194;28;20031;-58
2023/02/24 12:35:53;;;;;;;8.95;4.57;;;5.20;99.90;;;;;;4973768;28;20019;-59
2023/02/24 12:38:59;;;;;;;12.38;5.15;;;5.10;99.90;;;;;;4954842;28;20074;-59
2023/02/24 12:42:06;;;;;;;8.50;5.03;;;5.10;99.90;;;;;;4953624;28;20023;-54
2023/02/24 12:45:29;;;;;;;11.13;5.05;;;5.00;99.90;;;;;;4953722;29;20023;-59
2023/02/24 12:48:44;;;;;;;14.15;5.15;;;5.00;99.90;;;;;;4953203;29;20019;-57
2023/02/24 12:51:49;;;;;;;11.77;5.13;;;5.00;99.90;;;;;;4951797;29;20097;-59
2023/02/24 12:54:44;;;;;;;11.68;4.45;;;4.90;99.90;;;;;;4957764;28;20027;-57
2023/02/24 12:57:52;;;;;;;9.57;4.85;;;4.90;99.90;;;;;;4972158;28;20077;-60
2023/02/24 13:01:06;;;;;;;14.80;5.90;;;4.90;99.90;;;;;;4972363;28;20019;-56
2023/02/24 13:04:04;;;;;;;10.57;4.95;;;4.90;99.90;;;;;;4971989;28;20031;-60
2023/02/24 13:07:17;;;;;;;18.63;5.85;;;4.70;99.90;;;;;;4971869;28;20448;-60
2023/02/24 13:10:06;;;;;;;16.75;5.55;;;4.60;99.90;;;;;;4972136;28;20065;-54
2023/02/24 13:13:11;;;;;;;11.02;5.22;;;4.60;99.90;;;;;;4974389;28;20118;-60
2023/02/24 13:16:01;;;;;;;13.27;5.47;;;4.60;99.90;;;;;;4972039;28;20027;-60
2023/02/24 13:18:47;;;;;;;13.02;6.07;;;4.60;99.90;;;;;;4972764;28;20026;-59
2023/02/24 13:21:33;;;;;;;12.95;5.80;;;4.20;99.90;;;;;;4972726;28;20077;-59
2023/02/24 13:24:22;;;;;;;12.82;5.80;;;4.30;99.90;;;;;;4971969;28;20033;-60
2023/02/24 13:27:32;;;;;;;13.07;6.32;;;4.20;99.90;;;;;;4972168;28;20066;-60
2023/02/24 13:30:18;;;;;;;15.10;6.53;;;4.20;99.90;;;;;;4973052;28;20377;-59
2023/02/24 13:33:20;;;;;;;11.98;6.78;;;4.10;99.90;;;;;;4973022;28;20031;-61
2023/02/24 13:36:21;;;;;;;12.10;5.60;;;3.90;99.90;;;;;;4972821;28;20525;-61
2023/02/24 13:39:22;;;;;;;10.93;5.45;;;4.00;99.90;;;;;;4971302;28;20027;-63
2023/02/24 13:42:29;;;;;;;12.15;5.68;;;3.80;99.90;;;;;;4972725;28;20050;-60
2023/02/24 13:45:14;;;;;;;10.05;5.53;;;3.80;99.90;;;;;;4971824;28;20027;-61
2023/02/24 13:48:19;;;;;;;11.00;5.32;;;3.60;99.90;;;;;;4971161;28;20061;-63
2023/02/24 13:51:46;;;;;;;10.77;5.55;;;3.80;99.90;;;;;;4971526;28;20061;-63
2023/02/24 13:54:35;;;;;;;;;;;3.60;99.90;;;;;;4972280;28;20030;-63
2023/02/24 13:57:42;;;;;;;10.85;5.65;;;3.70;99.90;;;;;;4972448;28;19914;-63
2023/02/24 14:00:55;;;;;;;13.25;6.20;;;3.60;99.90;;;;;;4976308;28;20034;-62
2023/02/24 14:03:48;;;;;;;12.38;5.55;;;3.60;99.90;;;;;;4975823;28;20026;-62
2023/02/24 14:06:35;;;;;;;12.80;6.25;;;3.60;99.90;;;;;;4975802;28;20038;-62
2023/02/24 14:09:26;;;;;;;12.93;6.30;;;3.50;99.90;;;;;;4975606;28;20035;-62
2023/02/24 14:12:13;;;;;;;11.50;5.75;;;3.60;99.90;;;;;;4983267;28;20069;-62
2023/02/24 14:15:00;;;;;;;12.70;6.22;;;3.40;99.90;;;;;;4982235;28;20022;-61
2023/02/24 14:17:59;;;;;;;12.48;6.32;;;3.40;99.90;;;;;;4983810;28;20095;-62
2023/02/24 14:20:45;;;;;;;13.20;6.60;;;3.40;99.90;;;;;;4981000;28;20396;-61
2023/02/24 14:23:33;;;;;;;10.73;6.25;;;3.50;99.90;;;;;;4980012;28;20023;-61
2023/02/24 14:26:19;;;;;;;11.05;6.63;;;3.50;99.90;;;;;;4978249;28;20253;-60
2023/02/24 14:29:07;;;;;;;13.23;6.40;;;3.50;99.90;;;;;;4978413;28;20039;-61
2023/02/24 14:31:55;;;;;;;10.27;5.80;;;3.40;99.90;;;;;;4976518;28;20035;-60
2023/02/24 14:34:46;;;;;;;10.50;6.32;;;3.50;99.90;;;;;;4976785;28;20083;-61
2023/02/24 14:37:33;;;;;;;14.55;6.72;;;3.60;99.90;;;;;;4975113;28;20113;-60
2023/02/24 14:40:21;;;;;;;9.43;6.15;;;3.70;99.90;;;;;;4974776;28;20416;-60
2023/02/24 14:43:13;;;;;;;13.43;6.07;;;3.70;99.90;;;;;;4973938;28;20023;-61
2023/02/24 14:46:04;;;;;;;9.07;6.15;;;3.70;99.90;;;;;;4976373;28;20033;-55
2023/02/24 14:48:55;;;;;;;9.95;6.75;;;3.90;99.90;;;;;;4976272;28;20019;-52
2023/02/24 14:51:41;;;;;;;13.32;6.43;;;3.90;99.90;;;;;;4975731;28;20023;-59
2023/02/24 14:54:43;;;;;;;11.85;6.90;;;4.00;99.90;;;;;;4973833;28;20027;-55
2023/02/24 14:57:36;;;;;;;9.93;6.40;;;3.90;99.90;;;;;;4974750;28;20031;-58
2023/02/24 15:00:25;;;;;;;9.80;6.47;;;3.80;99.90;;;;;;4976255;28;20022;-61
2023/02/24 15:03:18;;;;;;;10.00;6.75;;;3.80;99.90;;;;;;4974087;28;20027;-55
2023/02/24 15:06:10;;;;;;;9.75;6.13;;;3.80;99.90;;;;;;4976186;28;20054;-56
2023/02/24 15:09:03;;;;;;;9.82;6.63;;;3.70;99.90;;;;;;4974776;28;20031;-57
2023/02/24 15:11:52;;;;;;;12.75;6.47;;;3.90;99.90;;;;;;4973324;28;20503;-58
2023/02/24 15:14:41;;;;;;;8.13;5.63;;;3.80;99.90;;;;;;4975208;28;20026;-58
2023/02/24 15:17:27;;;;;;;14.20;6.88;;;3.90;99.90;;;;;;4976895;28;20082;-55
2023/02/24 15:20:34;;;;;;;7.95;5.40;;;3.90;99.90;;;;;;4981876;28;20035;-60
2023/02/24 15:23:37;;;;;;;9.98;5.50;;;3.90;99.90;;;;;;4977033;28;20019;-51
2023/02/24 15:26:33;;;;;;;7.82;5.90;;;3.70;99.90;;;;;;4976577;28;20030;-56
2023/02/24 15:29:25;;;;;;;8.00;5.25;;;3.80;99.90;;;;;;4978629;28;20415;-60
2023/02/24 15:32:18;;;;;;;6.72;5.13;;;3.70;99.90;;;;;;4976077;28;20035;-56
2023/02/24 15:35:05;;;;;;;9.02;5.22;;;3.70;99.90;;;;;;4974677;28;20034;-61